sensor_id;sensor_type;location;lat;lon;timestamp;pressure;altitude;pressure_sealevel;temperature;humidity
56270;BME280;42176;43.240;27.880;2023-07-02T00:00:25;99417.72;;;20.60;95.94
56270;BME280;42176;43.240;27.880;2023-07-02T00:02:51;99417.94;;;20.57;96.95
56270;BME280;42176;43.240;27.880;2023-07-02T00:05:16;99406.97;;;20.60;97.43
56270;BME280;42176;43.240;27.880;2023-07-02T00:07:43;99406.72;;;20.63;97.40
56270;BME280;42176;43.240;27.880;2023-07-02T00:10:08;99406.16;;;20.71;96.75
56270;BME280;42176;43.240;27.880;2023-07-02T00:12:36;99394.81;;;20.78;95.91
56270;BME280;42176;43.240;27.880;2023-07-02T00:15:01;99393.78;;;20.68;97.04
56270;BME280;42176;43.240;27.880;2023-07-02T00:17:27;99394.00;;;20.65;98.24
56270;BME280;42176;43.240;27.880;2023-07-02T00:19:52;99383.84;;;20.68;96.96
56270;BME280;42176;43.240;27.880;2023-07-02T00:22:18;99376.13;;;20.64;97.00
56270;BME280;42176;43.240;27.880;2023-07-02T00:24:43;99377.06;;;20.51;98.16
56270;BME280;42176;43.240;27.880;2023-07-02T00:27:09;99373.41;;;20.52;98.19
56270;BME280;42176;43.240;27.880;2023-07-02T00:29:34;99380.03;;;20.60;97.39
56270;BME280;42176;43.240;27.880;2023-07-02T00:32:00;99374.66;;;20.60;97.80
56270;BME280;42176;43.240;27.880;2023-07-02T00:34:25;99376.38;;;20.61;98.06
56270;BME280;42176;43.240;27.880;2023-07-02T00:36:51;99370.75;;;20.64;97.81
56270;BME280;42176;43.240;27.880;2023-07-02T00:39:17;99370.88;;;20.62;98.33
56270;BME280;42176;43.240;27.880;2023-07-02T00:41:43;99370.53;;;20.67;98.54
56270;BME280;42176;43.240;27.880;2023-07-02T00:44:14;99364.63;;;20.62;99.22
56270;BME280;42176;43.240;27.880;2023-07-02T00:46:40;99358.03;;;20.66;98.88
56270;BME280;42176;43.240;27.880;2023-07-02T00:49:06;99365.34;;;20.77;99.04
56270;BME280;42176;43.240;27.880;2023-07-02T00:51:33;99357.13;;;20.90;98.17
56270;BME280;42176;43.240;27.880;2023-07-02T00:53:58;99362.81;;;20.98;97.68
56270;BME280;42176;43.240;27.880;2023-07-02T00:56:25;99361.34;;;20.69;100.00
56270;BME280;42176;43.240;27.880;2023-07-02T00:58:53;99356.28;;;20.78;100.00
56270;BME280;42176;43.240;27.880;2023-07-02T01:01:21;99357.97;;;20.79;100.00
56270;BME280;42176;43.240;27.880;2023-07-02T01:04:00;99350.41;;;20.84;100.00
56270;BME280;42176;43.240;27.880;2023-07-02T01:06:28;99357.97;;;20.79;100.00
56270;BME280;42176;43.240;27.880;2023-07-02T01:08:56;99354.16;;;20.70;100.00
56270;BME280;42176;43.240;27.880;2023-07-02T01:11:26;99358.03;;;20.66;100.00
56270;BME280;42176;43.240;27.880;2023-07-02T01:13:57;99358.50;;;20.60;100.00
56270;BME280;42176;43.240;27.880;2023-07-02T01:16:25;99354.56;;;20.52;100.00
56270;BME280;42176;43.240;27.880;2023-07-02T01:18:51;99349.28;;;20.51;100.00
56270;BME280;42176;43.240;27.880;2023-07-02T01:21:20;99355.06;;;20.58;100.00
56270;BME280;42176;43.240;27.880;2023-07-02T01:23:46;99354.91;;;20.48;100.00
56270;BME280;42176;43.240;27.880;2023-07-02T01:26:12;99345.00;;;20.48;100.00
56270;BME280;42176;43.240;27.880;2023-07-02T01:28:37;99333.63;;;20.45;100.00
56270;BME280;42176;43.240;27.880;2023-07-02T01:31:04;99346.94;;;20.46;100.00
56270;BME280;42176;43.240;27.880;2023-07-02T01:33:31;99342.28;;;20.37;100.00
56270;BME280;42176;43.240;27.880;2023-07-02T01:35:56;99345.72;;;20.39;100.00
56270;BME280;42176;43.240;27.880;2023-07-02T01:38:21;99351.81;;;20.41;100.00
56270;BME280;42176;43.240;27.880;2023-07-02T01:40:47;99349.59;;;20.35;100.00
56270;BME280;42176;43.240;27.880;2023-07-02T01:43:13;99348.41;;;20.39;100.00
56270;BME280;42176;43.240;27.880;2023-07-02T01:45:38;99340.34;;;20.39;100.00
56270;BME280;42176;43.240;27.880;2023-07-02T01:48:04;99343.50;;;20.44;100.00
56270;BME280;42176;43.240;27.880;2023-07-02T01:50:29;99348.28;;;20.41;100.00
56270;BME280;42176;43.240;27.880;2023-07-02T01:52:55;99350.00;;;20.42;100.00
56270;BME280;42176;43.240;27.880;2023-07-02T01:55:20;99346.56;;;20.39;100.00
56270;BME280;42176;43.240;27.880;2023-07-02T01:57:46;99352.78;;;20.40;100.00
56270;BME280;42176;43.240;27.880;2023-07-02T02:00:11;99352.94;;;20.50;100.00
56270;BME280;42176;43.240;27.880;2023-07-02T02:02:37;99344.06;;;20.61;100.00
56270;BME280;42176;43.240;27.880;2023-07-02T02:05:03;99339.81;;;20.69;100.00
56270;BME280;42176;43.240;27.880;2023-07-02T02:07:29;99339.25;;;20.77;100.00
56270;BME280;42176;43.240;27.880;2023-07-02T02:09:54;99335.75;;;20.64;100.00
56270;BME280;42176;43.240;27.880;2023-07-02T02:12:20;99344.13;;;20.48;100.00
56270;BME280;42176;43.240;27.880;2023-07-02T02:14:45;99343.03;;;20.39;100.00
56270;BME280;42176;43.240;27.880;2023-07-02T02:17:11;99338.84;;;20.35;100.00
56270;BME280;42176;43.240;27.880;2023-07-02T02:19:36;99345.41;;;20.31;100.00
56270;BME280;42176;43.240;27.880;2023-07-02T02:22:01;99349.44;;;20.25;100.00
56270;BME280;42176;43.240;27.880;2023-07-02T02:24:28;99338.28;;;20.18;100.00
56270;BME280;42176;43.240;27.880;2023-07-02T02:26:53;99344.44;;;20.32;100.00
56270;BME280;42176;43.240;27.880;2023-07-02T02:29:18;99353.72;;;20.28;100.00
56270;BME280;42176;43.240;27.880;2023-07-02T02:31:44;99351.16;;;20.26;100.00
56270;BME280;42176;43.240;27.880;2023-07-02T02:34:09;99354.69;;;20.27;100.00
56270;BME280;42176;43.240;27.880;2023-07-02T02:36:35;99354.25;;;20.33;100.00
56270;BME280;42176;43.240;27.880;2023-07-02T02:39:00;99360.25;;;20.36;100.00
56270;BME280;42176;43.240;27.880;2023-07-02T02:41:26;99354.06;;;20.47;100.00
56270;BME280;42176;43.240;27.880;2023-07-02T02:43:51;99356.22;;;20.42;100.00
56270;BME280;42176;43.240;27.880;2023-07-02T02:46:20;99356.69;;;20.36;100.00
56270;BME280;42176;43.240;27.880;2023-07-02T02:48:47;99356.69;;;20.36;100.00
56270;BME280;42176;43.240;27.880;2023-07-02T02:51:12;99368.94;;;20.40;100.00
56270;BME280;42176;43.240;27.880;2023-07-02T02:53:38;99358.22;;;20.51;100.00
56270;BME280;42176;43.240;27.880;2023-07-02T02:56:03;99366.09;;;20.54;100.00
56270;BME280;42176;43.240;27.880;2023-07-02T02:58:29;99344.78;;;20.51;100.00
56270;BME280;42176;43.240;27.880;2023-07-02T03:00:55;99354.59;;;20.64;100.00
56270;BME280;42176;43.240;27.880;2023-07-02T03:03:21;99358.53;;;20.71;100.00
56270;BME280;42176;43.240;27.880;2023-07-02T03:05:47;99353.88;;;20.73;100.00
56270;BME280;42176;43.240;27.880;2023-07-02T03:08:14;99351.72;;;20.78;100.00
56270;BME280;42176;43.240;27.880;2023-07-02T03:10:39;99357.13;;;20.78;100.00
56270;BME280;42176;43.240;27.880;2023-07-02T03:13:05;99354.94;;;20.83;100.00
56270;BME280;42176;43.240;27.880;2023-07-02T03:15:30;99361.91;;;20.86;100.00
56270;BME280;42176;43.240;27.880;2023-07-02T03:17:56;99359.59;;;20.93;100.00
56270;BME280;42176;43.240;27.880;2023-07-02T03:20:22;99361.09;;;20.97;100.00
56270;BME280;42176;43.240;27.880;2023-07-02T03:22:47;99358.88;;;21.02;100.00
56270;BME280;42176;43.240;27.880;2023-07-02T03:25:12;99362.84;;;21.43;100.00
56270;BME280;42176;43.240;27.880;2023-07-02T03:27:38;99357.81;;;21.84;100.00
56270;BME280;42176;43.240;27.880;2023-07-02T03:30:04;99350.97;;;22.13;100.00
56270;BME280;42176;43.240;27.880;2023-07-02T03:32:29;99353.75;;;22.45;100.00
56270;BME280;42176;43.240;27.880;2023-07-02T03:34:55;99351.72;;;22.80;100.00
56270;BME280;42176;43.240;27.880;2023-07-02T03:37:20;99349.66;;;22.93;100.00
56270;BME280;42176;43.240;27.880;2023-07-02T03:39:46;99356.38;;;22.99;100.00
56270;BME280;42176;43.240;27.880;2023-07-02T03:42:11;99362.03;;;23.38;100.00
56270;BME280;42176;43.240;27.880;2023-07-02T03:44:37;99369.56;;;23.76;100.00
56270;BME280;42176;43.240;27.880;2023-07-02T03:47:02;99355.47;;;24.23;100.00
56270;BME280;42176;43.240;27.880;2023-07-02T03:49:27;99364.31;;;24.84;100.00
56270;BME280;42176;43.240;27.880;2023-07-02T03:51:54;99359.63;;;25.33;100.00
56270;BME280;42176;43.240;27.880;2023-07-02T03:54:19;99361.50;;;25.71;98.99
56270;BME280;42176;43.240;27.880;2023-07-02T03:56:45;99362.19;;;25.73;97.27
56270;BME280;42176;43.240;27.880;2023-07-02T03:59:10;99357.09;;;25.97;95.27
56270;BME280;42176;43.240;27.880;2023-07-02T04:01:36;99351.78;;;25.96;93.95
56270;BME280;42176;43.240;27.880;2023-07-02T04:04:01;99354.03;;;26.28;91.49
56270;BME280;42176;43.240;27.880;2023-07-02T04:06:27;99350.00;;;26.33;91.64
56270;BME280;42176;43.240;27.880;2023-07-02T04:08:52;99344.31;;;26.80;88.66
56270;BME280;42176;43.240;27.880;2023-07-02T04:11:18;99359.50;;;27.44;83.81
56270;BME280;42176;43.240;27.880;2023-07-02T04:13:43;99359.59;;;28.03;79.92
56270;BME280;42176;43.240;27.880;2023-07-02T04:16:08;99355.28;;;28.44;77.08
56270;BME280;42176;43.240;27.880;2023-07-02T04:18:34;99361.78;;;28.59;72.74
56270;BME280;42176;43.240;27.880;2023-07-02T04:21:01;99359.03;;;28.59;73.60
56270;BME280;42176;43.240;27.880;2023-07-02T04:23:26;99346.78;;;29.05;70.69
56270;BME280;42176;43.240;27.880;2023-07-02T04:25:52;99351.41;;;29.60;67.81
56270;BME280;42176;43.240;27.880;2023-07-02T04:28:17;99358.44;;;29.95;64.59
56270;BME280;42176;43.240;27.880;2023-07-02T04:30:44;99348.78;;;29.36;65.13
56270;BME280;42176;43.240;27.880;2023-07-02T04:33:09;99353.63;;;30.05;63.64
56270;BME280;42176;43.240;27.880;2023-07-02T04:35:39;99357.50;;;31.04;56.86
56270;BME280;42176;43.240;27.880;2023-07-02T04:38:05;99355.03;;;30.94;54.45
56270;BME280;42176;43.240;27.880;2023-07-02T04:40:31;99355.75;;;29.86;59.79
56270;BME280;42176;43.240;27.880;2023-07-02T04:42:57;99361.78;;;29.00;62.50
56270;BME280;42176;43.240;27.880;2023-07-02T04:45:26;99359.75;;;28.78;65.87
56270;BME280;42176;43.240;27.880;2023-07-02T04:47:52;99379.47;;;28.38;66.50
56270;BME280;42176;43.240;27.880;2023-07-02T04:50:18;99363.81;;;28.82;65.69
56270;BME280;42176;43.240;27.880;2023-07-02T04:52:44;99370.81;;;28.76;64.93
56270;BME280;42176;43.240;27.880;2023-07-02T04:55:10;99367.88;;;28.28;67.53
56270;BME280;42176;43.240;27.880;2023-07-02T04:57:35;99380.19;;;28.82;66.83
56270;BME280;42176;43.240;27.880;2023-07-02T05:00:02;99374.38;;;29.35;61.71
56270;BME280;42176;43.240;27.880;2023-07-02T05:02:29;99375.59;;;28.99;63.36
56270;BME280;42176;43.240;27.880;2023-07-02T05:04:54;99374.88;;;29.86;59.06
56270;BME280;42176;43.240;27.880;2023-07-02T05:07:20;99376.25;;;29.82;59.76
56270;BME280;42176;43.240;27.880;2023-07-02T05:09:45;99377.81;;;29.04;62.16
56270;BME280;42176;43.240;27.880;2023-07-02T05:12:11;99383.22;;;28.54;63.79
56270;BME280;42176;43.240;27.880;2023-07-02T05:14:36;99392.50;;;27.67;69.50
56270;BME280;42176;43.240;27.880;2023-07-02T05:17:02;99392.53;;;28.10;70.02
56270;BME280;42176;43.240;27.880;2023-07-02T05:19:28;99380.50;;;29.37;62.80
56270;BME280;42176;43.240;27.880;2023-07-02T05:21:53;99368.44;;;29.71;61.09
56270;BME280;42176;43.240;27.880;2023-07-02T05:24:19;99368.50;;;29.54;62.08
56270;BME280;42176;43.240;27.880;2023-07-02T05:26:44;99380.66;;;28.44;66.00
56270;BME280;42176;43.240;27.880;2023-07-02T05:29:10;99376.06;;;29.36;63.40
56270;BME280;42176;43.240;27.880;2023-07-02T05:31:36;99387.72;;;29.69;62.15
56270;BME280;42176;43.240;27.880;2023-07-02T05:34:01;99383.56;;;30.21;58.79
56270;BME280;42176;43.240;27.880;2023-07-02T05:36:27;99384.56;;;29.57;60.75
56270;BME280;42176;43.240;27.880;2023-07-02T05:38:52;99389.19;;;29.24;63.72
56270;BME280;42176;43.240;27.880;2023-07-02T05:41:18;99395.13;;;28.28;67.28
56270;BME280;42176;43.240;27.880;2023-07-02T05:43:44;99393.22;;;28.20;68.55
56270;BME280;42176;43.240;27.880;2023-07-02T05:46:09;99394.47;;;28.67;66.76
56270;BME280;42176;43.240;27.880;2023-07-02T05:48:35;99392.06;;;28.39;68.92
56270;BME280;42176;43.240;27.880;2023-07-02T05:51:00;99385.88;;;28.13;72.07
56270;BME280;42176;43.240;27.880;2023-07-02T05:53:26;99395.06;;;28.11;71.43
56270;BME280;42176;43.240;27.880;2023-07-02T05:55:51;99391.81;;;27.73;73.69
56270;BME280;42176;43.240;27.880;2023-07-02T05:58:17;99389.72;;;28.61;70.00
56270;BME280;42176;43.240;27.880;2023-07-02T06:00:42;99384.78;;;29.14;64.95
56270;BME280;42176;43.240;27.880;2023-07-02T06:03:13;99383.38;;;30.00;60.74
56270;BME280;42176;43.240;27.880;2023-07-02T06:05:45;99386.00;;;31.09;55.87
56270;BME280;42176;43.240;27.880;2023-07-02T06:08:11;99381.81;;;31.52;54.77
56270;BME280;42176;43.240;27.880;2023-07-02T06:10:36;99374.34;;;31.16;56.36
56270;BME280;42176;43.240;27.880;2023-07-02T06:13:01;99381.25;;;31.41;55.88
56270;BME280;42176;43.240;27.880;2023-07-02T06:15:27;99384.06;;;32.45;51.61
56270;BME280;42176;43.240;27.880;2023-07-02T06:17:52;99377.53;;;32.89;49.58
56270;BME280;42176;43.240;27.880;2023-07-02T06:20:18;99376.84;;;31.02;54.31
56270;BME280;42176;43.240;27.880;2023-07-02T06:22:43;99374.53;;;29.81;60.72
56270;BME280;42176;43.240;27.880;2023-07-02T06:25:09;99369.28;;;30.11;61.39
56270;BME280;42176;43.240;27.880;2023-07-02T06:27:34;99375.22;;;29.75;62.95
56270;BME280;42176;43.240;27.880;2023-07-02T06:30:00;99372.75;;;30.60;59.63
56270;BME280;42176;43.240;27.880;2023-07-02T06:32:25;99365.47;;;30.75;57.06
56270;BME280;42176;43.240;27.880;2023-07-02T06:34:50;99374.31;;;29.91;60.44
56270;BME280;42176;43.240;27.880;2023-07-02T06:37:16;99373.47;;;29.90;61.43
56270;BME280;42176;43.240;27.880;2023-07-02T06:39:42;99374.19;;;29.84;60.69
56270;BME280;42176;43.240;27.880;2023-07-02T06:42:07;99378.78;;;29.84;60.99
56270;BME280;42176;43.240;27.880;2023-07-02T06:44:33;99375.66;;;30.81;58.20
56270;BME280;42176;43.240;27.880;2023-07-02T06:46:58;99379.25;;;32.69;51.26
56270;BME280;42176;43.240;27.880;2023-07-02T06:49:24;99379.38;;;31.57;54.61
56270;BME280;42176;43.240;27.880;2023-07-02T06:51:49;99390.25;;;30.50;56.33
56270;BME280;42176;43.240;27.880;2023-07-02T06:54:14;99368.91;;;29.18;62.01
56270;BME280;42176;43.240;27.880;2023-07-02T06:56:40;99390.25;;;28.73;66.82
56270;BME280;42176;43.240;27.880;2023-07-02T06:59:05;99385.63;;;29.40;65.94
56270;BME280;42176;43.240;27.880;2023-07-02T07:01:31;99382.94;;;30.19;62.84
56270;BME280;42176;43.240;27.880;2023-07-02T07:03:56;99382.00;;;31.35;57.49
56270;BME280;42176;43.240;27.880;2023-07-02T07:06:22;99385.09;;;33.09;49.52
56270;BME280;42176;43.240;27.880;2023-07-02T07:08:47;99385.50;;;33.34;48.50
56270;BME280;42176;43.240;27.880;2023-07-02T07:11:13;99377.03;;;34.06;45.72
56270;BME280;42176;43.240;27.880;2023-07-02T07:13:38;99403.13;;;34.30;44.42
56270;BME280;42176;43.240;27.880;2023-07-02T07:16:03;99388.03;;;35.09;43.19
56270;BME280;42176;43.240;27.880;2023-07-02T07:18:29;99383.75;;;35.46;42.00
56270;BME280;42176;43.240;27.880;2023-07-02T07:20:54;99381.81;;;35.60;41.42
56270;BME280;42176;43.240;27.880;2023-07-02T07:23:21;99388.91;;;34.20;41.67
56270;BME280;42176;43.240;27.880;2023-07-02T07:25:46;99378.03;;;34.81;41.58
56270;BME280;42176;43.240;27.880;2023-07-02T07:28:12;99378.03;;;35.48;40.62
56270;BME280;42176;43.240;27.880;2023-07-02T07:30:41;99383.31;;;35.56;40.87
56270;BME280;42176;43.240;27.880;2023-07-02T07:33:07;99382.56;;;34.20;40.57
56270;BME280;42176;43.240;27.880;2023-07-02T07:35:32;99379.66;;;33.44;41.90
56270;BME280;42176;43.240;27.880;2023-07-02T07:37:58;99382.25;;;33.24;43.36
56270;BME280;42176;43.240;27.880;2023-07-02T07:40:23;99373.41;;;33.64;43.50
56270;BME280;42176;43.240;27.880;2023-07-02T07:42:48;99372.50;;;32.13;48.25
56270;BME280;42176;43.240;27.880;2023-07-02T07:45:14;99382.81;;;31.06;51.79
56270;BME280;42176;43.240;27.880;2023-07-02T07:47:39;99370.81;;;30.68;53.42
56270;BME280;42176;43.240;27.880;2023-07-02T07:50:06;99374.56;;;30.44;55.16
56270;BME280;42176;43.240;27.880;2023-07-02T07:52:41;99376.38;;;30.29;56.16
56270;BME280;42176;43.240;27.880;2023-07-02T07:55:07;99375.50;;;30.05;56.13
56270;BME280;42176;43.240;27.880;2023-07-02T07:57:36;99372.63;;;30.76;54.71
56270;BME280;42176;43.240;27.880;2023-07-02T08:00:03;99374.28;;;31.01;53.03
56270;BME280;42176;43.240;27.880;2023-07-02T08:02:30;99374.94;;;30.64;51.49
56270;BME280;42176;43.240;27.880;2023-07-02T08:04:56;99376.97;;;30.39;52.24
56270;BME280;42176;43.240;27.880;2023-07-02T08:07:21;99375.78;;;31.41;50.23
56270;BME280;42176;43.240;27.880;2023-07-02T08:09:48;99368.41;;;31.27;48.15
56270;BME280;42176;43.240;27.880;2023-07-02T08:12:13;99381.09;;;31.73;48.55
56270;BME280;42176;43.240;27.880;2023-07-02T08:14:38;99385.75;;;33.11;43.15
56270;BME280;42176;43.240;27.880;2023-07-02T08:17:04;99382.06;;;33.54;42.65
56270;BME280;42176;43.240;27.880;2023-07-02T08:19:29;99395.63;;;33.97;42.00
56270;BME280;42176;43.240;27.880;2023-07-02T08:21:55;99389.53;;;33.74;43.32
56270;BME280;42176;43.240;27.880;2023-07-02T08:24:20;99386.06;;;34.49;42.45
56270;BME280;42176;43.240;27.880;2023-07-02T08:26:46;99385.50;;;34.11;42.72
56270;BME280;42176;43.240;27.880;2023-07-02T08:29:13;99383.13;;;35.17;40.82
56270;BME280;42176;43.240;27.880;2023-07-02T08:31:38;99384.41;;;35.28;39.86
56270;BME280;42176;43.240;27.880;2023-07-02T08:34:03;99379.72;;;34.41;39.53
56270;BME280;42176;43.240;27.880;2023-07-02T08:36:29;99374.22;;;34.55;40.40
56270;BME280;42176;43.240;27.880;2023-07-02T08:38:54;99356.22;;;35.26;39.12
56270;BME280;42176;43.240;27.880;2023-07-02T08:41:21;99362.41;;;35.08;39.71
56270;BME280;42176;43.240;27.880;2023-07-02T08:43:47;99375.13;;;34.07;40.65
56270;BME280;42176;43.240;27.880;2023-07-02T08:46:15;99370.81;;;32.70;43.33
56270;BME280;42176;43.240;27.880;2023-07-02T08:48:42;99378.34;;;33.75;42.60
56270;BME280;42176;43.240;27.880;2023-07-02T08:51:07;99376.56;;;33.25;44.46
56270;BME280;42176;43.240;27.880;2023-07-02T08:53:33;99392.41;;;33.02;44.26
56270;BME280;42176;43.240;27.880;2023-07-02T08:56:03;99388.50;;;32.09;48.20
56270;BME280;42176;43.240;27.880;2023-07-02T08:58:28;99378.59;;;31.63;50.31
56270;BME280;42176;43.240;27.880;2023-07-02T09:01:11;99385.03;;;31.40;49.82
56270;BME280;42176;43.240;27.880;2023-07-02T09:03:38;99382.91;;;31.12;49.31
56270;BME280;42176;43.240;27.880;2023-07-02T09:06:05;99388.09;;;31.76;50.17
56270;BME280;42176;43.240;27.880;2023-07-02T09:08:30;99397.53;;;31.88;49.35
56270;BME280;42176;43.240;27.880;2023-07-02T09:13:47;99387.41;;;31.05;55.44
56270;BME280;42176;43.240;27.880;2023-07-02T09:16:22;99381.41;;;30.40;56.66
56270;BME280;42176;43.240;27.880;2023-07-02T09:19:02;99377.69;;;31.03;55.73
56270;BME280;42176;43.240;27.880;2023-07-02T09:21:38;99386.34;;;30.68;57.07
56270;BME280;42176;43.240;27.880;2023-07-02T09:24:23;99383.47;;;30.70;57.38
56270;BME280;42176;43.240;27.880;2023-07-02T09:26:51;99384.88;;;29.54;63.00
56270;BME280;42176;43.240;27.880;2023-07-02T09:32:04;99391.81;;;28.08;73.02
56270;BME280;42176;43.240;27.880;2023-07-02T09:34:34;99382.75;;;28.07;73.03
56270;BME280;42176;43.240;27.880;2023-07-02T09:37:01;99375.75;;;27.54;79.88
56270;BME280;42176;43.240;27.880;2023-07-02T09:39:29;99386.19;;;26.87;81.35
56270;BME280;42176;43.240;27.880;2023-07-02T09:41:56;99386.25;;;26.41;88.21
56270;BME280;42176;43.240;27.880;2023-07-02T09:44:28;99392.06;;;26.28;88.78
56270;BME280;42176;43.240;27.880;2023-07-02T09:47:01;99382.28;;;26.72;88.73
56270;BME280;42176;43.240;27.880;2023-07-02T09:49:31;99389.28;;;26.56;85.51
56270;BME280;42176;43.240;27.880;2023-07-02T09:52:02;99393.28;;;26.16;90.04
56270;BME280;42176;43.240;27.880;2023-07-02T09:54:29;99386.94;;;25.97;92.46
56270;BME280;42176;43.240;27.880;2023-07-02T09:56:56;99378.00;;;26.15;97.61
56270;BME280;42176;43.240;27.880;2023-07-02T09:59:23;99375.13;;;26.35;92.56
56270;BME280;42176;43.240;27.880;2023-07-02T10:01:50;99373.38;;;25.97;96.41
56270;BME280;42176;43.240;27.880;2023-07-02T10:04:17;99383.03;;;25.82;94.23
56270;BME280;42176;43.240;27.880;2023-07-02T10:06:51;99371.75;;;26.05;97.89
56270;BME280;42176;43.240;27.880;2023-07-02T10:09:18;99373.66;;;25.94;88.63
56270;BME280;42176;43.240;27.880;2023-07-02T10:11:44;99384.03;;;25.81;90.35
56270;BME280;42176;43.240;27.880;2023-07-02T10:14:10;99381.81;;;25.66;99.42
56270;BME280;42176;43.240;27.880;2023-07-02T10:16:54;99375.44;;;26.32;98.87
56270;BME280;42176;43.240;27.880;2023-07-02T10:19:20;99373.50;;;26.78;88.06
56270;BME280;42176;43.240;27.880;2023-07-02T10:21:46;99369.50;;;27.09;86.68
56270;BME280;42176;43.240;27.880;2023-07-02T10:24:16;99368.72;;;26.54;89.46
56270;BME280;42176;43.240;27.880;2023-07-02T10:26:53;99371.66;;;26.24;92.95
56270;BME280;42176;43.240;27.880;2023-07-02T10:29:19;99368.56;;;26.09;92.08
56270;BME280;42176;43.240;27.880;2023-07-02T10:31:50;99355.38;;;25.96;90.80
56270;BME280;42176;43.240;27.880;2023-07-02T10:34:16;99350.22;;;26.39;88.54
56270;BME280;42176;43.240;27.880;2023-07-02T10:36:42;99354.19;;;25.99;84.35
56270;BME280;42176;43.240;27.880;2023-07-02T10:39:07;99352.53;;;25.88;90.81
56270;BME280;42176;43.240;27.880;2023-07-02T10:41:34;99349.38;;;26.21;92.38
56270;BME280;42176;43.240;27.880;2023-07-02T10:44:07;99355.38;;;25.96;94.84
56270;BME280;42176;43.240;27.880;2023-07-02T10:46:33;99347.38;;;26.41;88.09
56270;BME280;42176;43.240;27.880;2023-07-02T10:48:58;99345.63;;;26.76;85.79
56270;BME280;42176;43.240;27.880;2023-07-02T10:51:24;99334.69;;;26.86;86.17
56270;BME280;42176;43.240;27.880;2023-07-02T10:54:02;99344.00;;;26.83;84.83
56270;BME280;42176;43.240;27.880;2023-07-02T10:56:30;99336.25;;;26.16;86.36
56270;BME280;42176;43.240;27.880;2023-07-02T10:58:55;99335.38;;;25.97;87.10
56270;BME280;42176;43.240;27.880;2023-07-02T11:01:31;99335.53;;;25.68;84.28
56270;BME280;42176;43.240;27.880;2023-07-02T11:04:01;99324.41;;;25.61;86.87
56270;BME280;42176;43.240;27.880;2023-07-02T11:06:28;99328.09;;;26.16;81.55
56270;BME280;42176;43.240;27.880;2023-07-02T11:08:54;99325.50;;;25.96;80.90
56270;BME280;42176;43.240;27.880;2023-07-02T11:11:24;99321.25;;;26.48;81.70
56270;BME280;42176;43.240;27.880;2023-07-02T11:13:50;99324.25;;;26.99;77.89
56270;BME280;42176;43.240;27.880;2023-07-02T11:16:18;99332.13;;;26.66;79.20
56270;BME280;42176;43.240;27.880;2023-07-02T11:18:43;99318.44;;;26.76;73.41
56270;BME280;42176;43.240;27.880;2023-07-02T11:21:12;99321.41;;;26.65;72.17
56270;BME280;42176;43.240;27.880;2023-07-02T11:23:37;99318.78;;;26.37;82.38
56270;BME280;42176;43.240;27.880;2023-07-02T11:26:03;99320.94;;;26.51;81.45
56270;BME280;42176;43.240;27.880;2023-07-02T11:28:30;99319.50;;;26.39;84.70
56270;BME280;42176;43.240;27.880;2023-07-02T11:30:56;99316.13;;;26.81;87.34
56270;BME280;42176;43.240;27.880;2023-07-02T11:33:42;99319.31;;;26.58;84.34
56270;BME280;42176;43.240;27.880;2023-07-02T11:36:21;99317.16;;;26.26;83.93
56270;BME280;42176;43.240;27.880;2023-07-02T11:38:49;99313.84;;;26.14;86.53
56270;BME280;42176;43.240;27.880;2023-07-02T11:41:14;99315.06;;;26.38;88.89
56270;BME280;42176;43.240;27.880;2023-07-02T11:43:40;99329.50;;;26.56;77.44
56270;BME280;42176;43.240;27.880;2023-07-02T11:46:05;99334.25;;;25.90;84.39
56270;BME280;42176;43.240;27.880;2023-07-02T11:48:31;99328.22;;;25.96;83.81
56270;BME280;42176;43.240;27.880;2023-07-02T11:50:56;99323.69;;;26.33;80.35
56270;BME280;42176;43.240;27.880;2023-07-02T11:53:22;99324.81;;;25.94;89.18
56270;BME280;42176;43.240;27.880;2023-07-02T11:55:47;99335.56;;;25.58;91.36
56270;BME280;42176;43.240;27.880;2023-07-02T11:58:12;99328.03;;;25.80;89.66
56270;BME280;42176;43.240;27.880;2023-07-02T12:00:39;99318.13;;;26.07;89.10
56270;BME280;42176;43.240;27.880;2023-07-02T12:03:05;99319.66;;;25.91;94.19
56270;BME280;42176;43.240;27.880;2023-07-02T12:05:30;99319.19;;;25.78;84.73
56270;BME280;42176;43.240;27.880;2023-07-02T12:07:56;99322.88;;;25.59;83.92
56270;BME280;42176;43.240;27.880;2023-07-02T12:10:21;99321.97;;;25.86;84.20
56270;BME280;42176;43.240;27.880;2023-07-02T12:12:47;99315.28;;;25.62;91.13
56270;BME280;42176;43.240;27.880;2023-07-02T12:15:12;99325.22;;;25.72;90.82
56270;BME280;42176;43.240;27.880;2023-07-02T12:17:37;99327.72;;;25.55;93.71
56270;BME280;42176;43.240;27.880;2023-07-02T12:20:03;99331.44;;;25.54;99.12
56270;BME280;42176;43.240;27.880;2023-07-02T12:22:29;99335.19;;;25.81;95.11
56270;BME280;42176;43.240;27.880;2023-07-02T12:24:54;99329.94;;;25.97;97.22
56270;BME280;42176;43.240;27.880;2023-07-02T12:27:21;99322.44;;;25.81;93.36
56270;BME280;42176;43.240;27.880;2023-07-02T12:29:47;99330.97;;;25.68;92.74
56270;BME280;42176;43.240;27.880;2023-07-02T12:32:14;99319.19;;;25.78;90.30
56270;BME280;42176;43.240;27.880;2023-07-02T12:34:39;99337.44;;;25.58;93.08
56270;BME280;42176;43.240;27.880;2023-07-02T12:37:05;99320.00;;;25.60;93.82
56270;BME280;42176;43.240;27.880;2023-07-02T12:39:30;99321.22;;;25.48;97.32
56270;BME280;42176;43.240;27.880;2023-07-02T12:41:56;99309.16;;;25.22;96.10
56270;BME280;42176;43.240;27.880;2023-07-02T12:44:22;99312.56;;;25.24;99.26
56270;BME280;42176;43.240;27.880;2023-07-02T12:46:47;99322.69;;;25.22;96.92
56270;BME280;42176;43.240;27.880;2023-07-02T12:49:13;99333.28;;;25.16;97.34